createdAt,value
2017-10-25T00:00:31.357Z,6.10
2017-10-25T00:03:00.615Z,6.47
2017-10-25T00:05:29.905Z,6.25
2017-10-25T00:07:59.149Z,7.37
2017-10-25T00:10:28.405Z,5.90
2017-10-25T00:12:57.728Z,5.80
2017-10-25T00:15:27.019Z,6.18
2017-10-25T00:17:56.284Z,6.37
2017-10-25T00:20:26.333Z,6.75
2017-10-25T00:22:55.579Z,5.97
2017-10-25T00:25:24.885Z,6.12
2017-10-25T00:27:54.316Z,6.55
2017-10-25T00:30:23.644Z,6.53
2017-10-25T00:32:52.874Z,6.20
2017-10-25T00:35:22.163Z,6.80
2017-10-25T00:37:51.411Z,6.82
2017-10-25T00:40:21.443Z,6.87
2017-10-25T00:42:50.678Z,6.85
2017-10-25T00:45:19.928Z,6.68
2017-10-25T00:47:49.993Z,7.57
2017-10-25T00:50:19.259Z,7.05
2017-10-25T00:52:48.515Z,8.10
2017-10-25T00:55:17.805Z,7.25
2017-10-25T00:57:47.065Z,8.07
2017-10-25T01:00:16.342Z,7.45
2017-10-25T01:02:45.698Z,6.60
2017-10-25T01:05:14.948Z,7.15
2017-10-25T01:07:44.203Z,7.25
2017-10-25T01:10:13.481Z,6.22
2017-10-25T01:12:42.729Z,7.20
2017-10-25T01:15:12.796Z,6.78
2017-10-25T01:17:42.043Z,5.97
2017-10-25T01:20:12.075Z,6.62
2017-10-25T01:22:41.688Z,5.85
2017-10-25T01:25:10.943Z,5.22
2017-10-25T01:27:40.163Z,5.80
2017-10-25T01:30:10.251Z,5.55
2017-10-25T01:32:39.563Z,5.68
2017-10-25T01:35:08.808Z,5.12
2017-10-25T01:37:38.115Z,5.30
2017-10-25T01:40:07.363Z,5.28
2017-10-25T01:42:36.594Z,5.47
2017-10-25T01:45:05.871Z,5.30
2017-10-25T01:47:35.148Z,4.93
2017-10-25T01:50:04.379Z,5.40
2017-10-25T01:52:33.699Z,4.80
2017-10-25T01:55:03.680Z,5.03
2017-10-25T01:57:32.940Z,5.10
2017-10-25T02:00:02.209Z,5.50
2017-10-25T02:02:32.287Z,4.30
2017-10-25T02:05:01.535Z,5.25
2017-10-25T02:07:30.775Z,5.30
2017-10-25T02:10:00.073Z,4.93
2017-10-25T02:12:29.308Z,4.90
2017-10-25T02:14:58.552Z,5.30
2017-10-25T02:17:27.822Z,4.40
2017-10-25T02:19:57.840Z,5.15
2017-10-25T02:22:27.139Z,4.97
2017-10-25T02:24:57.139Z,5.35
2017-10-25T02:27:26.429Z,4.78
2017-10-25T02:29:55.676Z,4.50
2017-10-25T02:32:24.912Z,5.10
2017-10-25T02:34:54.204Z,4.87
2017-10-25T02:37:23.450Z,5.07
2017-10-25T02:39:52.704Z,4.85
2017-10-25T02:42:21.985Z,4.80
2017-10-25T02:44:51.241Z,5.18
2017-10-25T02:47:20.479Z,4.70
2017-10-25T02:49:49.771Z,5.00
2017-10-25T02:52:19.000Z,5.32
2017-10-25T02:54:48.244Z,4.60
2017-10-25T02:57:17.526Z,4.55
2017-10-25T02:59:46.772Z,4.40
2017-10-25T03:02:16.015Z,4.80
2017-10-25T03:04:45.296Z,5.00
2017-10-25T03:07:14.539Z,4.65
2017-10-25T03:09:43.776Z,4.12
2017-10-25T03:12:13.115Z,5.12
2017-10-25T03:14:42.359Z,4.28
2017-10-25T03:17:12.384Z,4.55
2017-10-25T03:19:41.651Z,4.95
2017-10-25T03:22:10.905Z,5.05
2017-10-25T03:24:40.151Z,4.82
2017-10-25T03:27:09.436Z,4.55
2017-10-25T03:29:38.720Z,5.47
2017-10-25T03:32:07.997Z,4.40
2017-10-25T03:34:37.280Z,5.35
2017-10-25T03:37:07.287Z,5.12
2017-10-25T03:39:37.416Z,4.78
2017-10-25T03:42:07.422Z,4.82
2017-10-25T03:44:36.740Z,4.90
2017-10-25T03:47:06.156Z,4.20
2017-10-25T03:49:35.599Z,4.57
2017-10-25T03:52:04.996Z,4.90
2017-10-25T03:54:34.264Z,4.90
2017-10-25T03:57:03.519Z,4.70
2017-10-25T03:59:32.769Z,4.30
2017-10-25T04:02:02.035Z,4.62
2017-10-25T04:04:31.358Z,5.32
2017-10-25T04:07:01.366Z,4.80
2017-10-25T04:09:31.405Z,5.28
2017-10-25T04:12:00.656Z,5.00
2017-10-25T04:14:29.898Z,6.00
2017-10-25T04:16:59.188Z,6.57
2017-10-25T04:19:29.191Z,5.47
2017-10-25T04:21:59.248Z,4.68
2017-10-25T04:24:28.517Z,6.32
2017-10-25T04:26:57.900Z,6.30
2017-10-25T04:29:27.179Z,20.88
2017-10-25T04:31:56.428Z,6.57
2017-10-25T04:34:26.467Z,6.18
2017-10-25T04:36:56.490Z,6.20
2017-10-25T04:39:25.760Z,5.35
2017-10-25T04:41:55.808Z,6.72
2017-10-25T04:44:25.097Z,6.03
2017-10-25T04:46:54.343Z,6.37
2017-10-25T04:49:23.618Z,5.12
2017-10-25T04:51:52.884Z,4.30
2017-10-25T04:54:22.122Z,4.60
2017-10-25T04:56:51.384Z,4.85
2017-10-25T04:59:21.421Z,4.90
2017-10-25T05:01:50.704Z,4.57
2017-10-25T05:04:20.720Z,5.07
2017-10-25T05:06:50.759Z,4.90
2017-10-25T05:09:20.013Z,5.50
2017-10-25T05:11:49.287Z,6.75
2017-10-25T05:14:18.564Z,5.60
2017-10-25T05:16:47.819Z,6.18
2017-10-25T05:19:17.075Z,5.65
2017-10-25T05:21:46.348Z,5.43
2017-10-25T05:24:15.603Z,4.80
2017-10-25T05:26:44.847Z,5.47
2017-10-25T05:29:14.143Z,4.93
2017-10-25T05:31:44.160Z,4.97
2017-10-25T05:34:13.436Z,6.03
2017-10-25T05:36:42.723Z,4.95
2017-10-25T05:39:12.236Z,5.40
2017-10-25T05:41:41.552Z,5.22
2017-10-25T05:44:10.804Z,5.68
2017-10-25T05:46:40.052Z,4.57
2017-10-25T05:49:10.085Z,3.90
2017-10-25T05:51:40.095Z,5.03
2017-10-25T05:54:09.351Z,4.75
2017-10-25T05:56:38.616Z,4.60
2017-10-25T05:59:07.870Z,5.15
2017-10-25T06:01:37.110Z,4.70
2017-10-25T06:04:06.380Z,4.50
2017-10-25T06:06:35.671Z,4.95
2017-10-25T06:09:05.020Z,5.80
2017-10-25T06:11:34.267Z,5.10
2017-10-25T06:14:03.512Z,4.75
2017-10-25T06:16:32.798Z,5.25
2017-10-25T06:19:02.848Z,4.65
2017-10-25T06:21:32.123Z,5.32
2017-10-25T06:24:02.151Z,7.53
2017-10-25T06:26:31.391Z,5.68
2017-10-25T06:29:00.691Z,5.95
2017-10-25T06:31:29.931Z,5.53
2017-10-25T06:33:59.191Z,5.78
2017-10-25T06:36:28.449Z,4.80
2017-10-25T06:38:57.701Z,4.87
2017-10-25T06:41:27.000Z,4.70
2017-10-25T06:43:56.249Z,4.55
2017-10-25T06:46:26.290Z,4.40
2017-10-25T06:48:55.529Z,4.28
2017-10-25T06:51:24.772Z,4.53
2017-10-25T06:53:54.028Z,4.30
2017-10-25T06:56:23.273Z,5.00
2017-10-25T06:58:52.546Z,4.25
2017-10-25T07:01:21.845Z,4.82
2017-10-25T07:03:51.136Z,4.40
2017-10-25T07:06:20.419Z,4.65
2017-10-25T07:08:49.652Z,6.20
2017-10-25T07:11:19.684Z,5.07
2017-10-25T07:13:48.956Z,5.32
2017-10-25T07:16:18.195Z,5.15
2017-10-25T07:18:47.479Z,5.05
2017-10-25T07:21:17.511Z,4.85
2017-10-25T07:23:46.798Z,4.68
2017-10-25T07:26:16.813Z,5.35
2017-10-25T07:28:46.096Z,4.70
2017-10-25T07:31:15.344Z,5.35
2017-10-25T07:33:44.597Z,4.10
2017-10-25T07:36:13.862Z,4.05
2017-10-25T07:38:43.118Z,4.53
2017-10-25T07:41:13.148Z,4.00
2017-10-25T07:43:42.443Z,4.57
2017-10-25T07:46:11.693Z,5.00
2017-10-25T07:48:40.930Z,5.00
2017-10-25T07:51:10.983Z,4.57
2017-10-25T07:53:40.231Z,5.37
2017-10-25T07:56:09.757Z,4.50
2017-10-25T07:58:39.892Z,5.05
2017-10-25T08:01:09.140Z,5.65
2017-10-25T08:03:38.383Z,6.43
2017-10-25T08:06:08.424Z,6.45
2017-10-25T08:08:37.677Z,5.15
2017-10-25T08:11:06.912Z,5.55
2017-10-25T08:13:36.180Z,5.35
2017-10-25T08:16:05.447Z,5.15
2017-10-25T08:18:34.811Z,4.35
2017-10-25T08:21:04.089Z,4.80
2017-10-25T08:23:33.343Z,4.30
2017-10-25T08:26:02.773Z,4.87
2017-10-25T08:28:32.131Z,4.22
2017-10-25T08:31:01.375Z,3.97
2017-10-25T08:33:30.675Z,4.57
2017-10-25T08:35:59.921Z,4.28
2017-10-25T08:38:29.300Z,3.50
2017-10-25T08:40:58.597Z,3.30
2017-10-25T08:43:27.826Z,3.22
2017-10-25T08:45:57.923Z,4.30
2017-10-25T08:48:27.164Z,4.20
2017-10-25T08:50:56.416Z,5.07
2017-10-25T08:53:25.676Z,5.28
2017-10-25T08:55:55.785Z,5.35
2017-10-25T08:58:25.040Z,5.80
2017-10-25T09:00:55.082Z,6.35
2017-10-25T09:03:24.341Z,4.45
2017-10-25T09:05:53.603Z,5.10
2017-10-25T09:08:22.913Z,5.40
2017-10-25T09:10:52.168Z,5.40
2017-10-25T09:13:22.248Z,5.97
2017-10-25T09:15:51.487Z,4.50
2017-10-25T09:18:20.744Z,6.03
2017-10-25T09:20:50.041Z,5.10
2017-10-25T09:23:19.287Z,6.57
2017-10-25T09:25:49.317Z,5.22
2017-10-25T09:28:18.576Z,5.50
2017-10-25T09:30:47.838Z,5.25
2017-10-25T09:33:17.100Z,5.22
2017-10-25T09:35:46.341Z,5.10
2017-10-25T09:38:15.587Z,6.03
2017-10-25T09:40:44.860Z,6.00
2017-10-25T09:43:14.134Z,6.03
2017-10-25T09:45:43.380Z,5.68
2017-10-25T09:48:12.641Z,6.10
2017-10-25T09:50:41.893Z,5.90
2017-10-25T09:53:11.954Z,5.72
2017-10-25T09:55:41.191Z,5.82
2017-10-25T09:58:10.433Z,4.15
2017-10-25T10:00:39.733Z,4.03
2017-10-25T10:03:09.752Z,4.47
2017-10-25T10:05:39.771Z,5.70
2017-10-25T10:08:09.059Z,4.95
2017-10-25T10:10:39.064Z,5.50
2017-10-25T10:13:08.329Z,5.57
2017-10-25T10:15:37.601Z,6.82
2017-10-25T10:18:06.854Z,6.43
2017-10-25T10:20:36.112Z,5.50
2017-10-25T10:23:05.421Z,6.03
2017-10-25T10:25:34.730Z,4.90
2017-10-25T10:28:03.938Z,5.05
2017-10-25T10:30:33.204Z,4.40
2017-10-25T10:33:02.448Z,4.37
2017-10-25T10:35:32.137Z,4.68
2017-10-25T10:38:01.371Z,3.40
2017-10-25T10:40:30.612Z,3.37
2017-10-25T10:42:59.879Z,3.25
2017-10-25T10:45:29.891Z,3.20
2017-10-25T10:47:59.939Z,2.50
2017-10-25T10:50:29.423Z,3.22
2017-10-25T10:52:59.442Z,3.30
2017-10-25T10:55:29.508Z,3.42
2017-10-25T10:57:58.721Z,4.20
2017-10-25T11:00:27.976Z,3.53
2017-10-25T11:02:57.247Z,3.22
2017-10-25T11:05:26.487Z,2.42
2017-10-25T11:07:55.758Z,2.15
2017-10-25T11:10:25.771Z,2.65
2017-10-25T11:12:55.833Z,3.87
2017-10-25T11:15:25.079Z,2.80
2017-10-25T11:17:54.326Z,3.22
2017-10-25T11:20:23.615Z,4.15
2017-10-25T11:22:52.864Z,4.55
2017-10-25T11:25:22.108Z,3.80
2017-10-25T11:27:52.151Z,3.90
2017-10-25T11:30:21.395Z,3.90
2017-10-25T11:32:50.643Z,3.60
2017-10-25T11:35:19.913Z,3.30
2017-10-25T11:38:02.481Z,3.22
2017-10-25T11:40:31.770Z,3.03
2017-10-25T11:43:01.022Z,2.40
2017-10-25T11:45:31.048Z,2.42
2017-10-25T11:48:00.348Z,2.55
2017-10-25T11:50:30.439Z,2.28
2017-10-25T11:52:59.723Z,2.97
2017-10-25T11:55:29.062Z,2.75
2017-10-25T11:57:58.323Z,2.60
2017-10-25T12:00:27.646Z,3.28
2017-10-25T12:02:56.908Z,2.60
2017-10-25T12:05:26.151Z,2.80
2017-10-25T12:07:55.451Z,2.67
2017-10-25T12:10:24.727Z,3.30
2017-10-25T12:12:54.060Z,2.30
2017-10-25T12:15:24.106Z,2.17
2017-10-25T12:17:53.346Z,2.40
2017-10-25T12:20:22.623Z,1.85
2017-10-25T12:22:51.867Z,4.45
2017-10-25T12:25:21.139Z,2.70
2017-10-25T12:27:50.406Z,3.83
2017-10-25T12:30:19.671Z,2.90
2017-10-25T12:32:48.960Z,2.10
2017-10-25T12:35:18.249Z,2.10
2017-10-25T12:37:47.464Z,1.85
2017-10-25T12:40:16.732Z,1.60
2017-10-25T12:42:45.986Z,1.65
2017-10-25T12:45:16.025Z,2.10
2017-10-25T12:47:45.304Z,2.00
2017-10-25T12:50:15.308Z,2.35
2017-10-25T12:52:44.575Z,2.05
2017-10-25T12:55:13.895Z,2.05
2017-10-25T12:57:43.212Z,2.03
2017-10-25T13:00:12.494Z,2.25
2017-10-25T13:02:41.790Z,2.58
2017-10-25T13:05:11.021Z,2.75
2017-10-25T13:07:41.320Z,2.70
2017-10-25T13:10:32.095Z,2.35
2017-10-25T13:13:42.972Z,3.00
2017-10-25T13:16:42.288Z,2.70
2017-10-25T13:19:14.656Z,2.75
2017-10-25T13:21:43.946Z,3.05
2017-10-25T13:24:13.212Z,2.60
2017-10-25T13:26:43.271Z,2.42
2017-10-25T13:29:12.506Z,2.22
2017-10-25T13:31:41.750Z,2.05
2017-10-25T13:34:11.086Z,1.95
2017-10-25T13:36:40.326Z,2.00
2017-10-25T13:39:09.686Z,2.28
2017-10-25T13:41:38.955Z,1.85
2017-10-25T13:44:08.183Z,1.85
2017-10-25T13:46:37.428Z,2.17
2017-10-25T13:49:07.457Z,2.25
2017-10-25T13:51:37.469Z,2.05
2017-10-25T13:54:07.504Z,2.17
2017-10-25T13:56:36.748Z,1.60
2017-10-25T13:59:05.984Z,1.98
2017-10-25T14:01:36.165Z,1.87
2017-10-25T14:04:05.456Z,1.70
2017-10-25T14:06:34.703Z,1.80
2017-10-25T14:09:04.728Z,1.52
2017-10-25T14:11:34.758Z,1.70
2017-10-25T14:14:04.796Z,1.95
2017-10-25T14:16:34.032Z,1.67
2017-10-25T14:19:03.275Z,1.90
2017-10-25T14:21:32.596Z,2.22
2017-10-25T14:24:01.851Z,2.10
2017-10-25T14:26:48.988Z,1.70
2017-10-25T14:29:19.034Z,1.50
2017-10-25T14:31:48.308Z,1.87
2017-10-25T14:34:18.315Z,1.98
2017-10-25T14:36:48.368Z,1.77
2017-10-25T14:39:17.632Z,1.85
2017-10-25T14:41:47.630Z,1.55
2017-10-25T14:44:16.912Z,1.87
2017-10-25T14:46:46.150Z,1.60
2017-10-25T14:49:16.200Z,1.55
2017-10-25T14:51:45.440Z,1.95
2017-10-25T14:54:14.675Z,2.05
2017-10-25T14:56:44.715Z,2.10
2017-10-25T14:59:13.948Z,1.90
2017-10-25T15:01:43.211Z,2.08
2017-10-25T15:04:12.467Z,2.05
2017-10-25T15:06:41.728Z,1.80
2017-10-25T15:09:10.979Z,2.72
2017-10-25T15:11:40.338Z,2.47
2017-10-25T15:14:09.567Z,1.80
2017-10-25T15:16:38.819Z,1.85
2017-10-25T15:19:08.120Z,1.60
2017-10-25T15:21:37.363Z,2.05
2017-10-25T15:24:06.611Z,1.92
2017-10-25T15:26:35.891Z,2.00
2017-10-25T15:29:05.890Z,2.08
2017-10-25T15:31:35.143Z,2.30
2017-10-25T15:34:04.523Z,1.98
2017-10-25T15:36:34.534Z,2.28
2017-10-25T15:39:04.557Z,2.40
2017-10-25T15:41:34.601Z,2.55
2017-10-25T15:44:03.855Z,2.42
2017-10-25T15:46:33.120Z,2.62
2017-10-25T15:49:02.401Z,2.40
2017-10-25T15:51:31.645Z,3.05
2017-10-25T15:54:00.880Z,2.95
2017-10-25T15:56:30.152Z,2.50
2017-10-25T15:58:59.415Z,2.58
2017-10-25T16:01:28.711Z,2.90
2017-10-25T16:03:57.956Z,2.20
2017-10-25T16:06:27.212Z,2.53
2017-10-25T16:08:56.498Z,2.60
2017-10-25T16:11:25.776Z,2.50
2017-10-25T16:13:55.043Z,2.80
2017-10-25T16:16:24.366Z,2.95
2017-10-25T16:18:53.647Z,3.08
2017-10-25T16:21:23.169Z,3.17
2017-10-25T16:23:52.445Z,3.00
2017-10-25T16:26:21.691Z,3.17
2017-10-25T16:28:51.712Z,3.05
2017-10-25T16:31:20.976Z,2.40
2017-10-25T16:33:50.327Z,2.75
2017-10-25T16:36:19.589Z,2.62
2017-10-25T16:38:48.851Z,3.00
2017-10-25T16:41:18.096Z,3.00
2017-10-25T16:43:47.374Z,3.35
2017-10-25T16:46:16.635Z,3.00
2017-10-25T16:48:45.880Z,3.20
2017-10-25T16:51:15.150Z,3.30
2017-10-25T16:53:44.392Z,3.10
2017-10-25T16:56:13.629Z,3.42
2017-10-25T16:58:42.935Z,3.50
2017-10-25T17:01:12.203Z,3.50
2017-10-25T17:03:44.950Z,3.60
2017-10-25T17:06:14.348Z,3.62
2017-10-25T17:08:43.583Z,3.58
2017-10-25T17:11:13.093Z,3.53
2017-10-25T17:13:42.599Z,3.83
2017-10-25T17:16:11.877Z,4.50
2017-10-25T17:18:41.199Z,4.57
2017-10-25T17:21:10.555Z,4.50
2017-10-25T17:23:39.800Z,4.15
2017-10-25T17:26:09.196Z,4.62
2017-10-25T17:28:38.422Z,5.30
2017-10-25T17:31:07.674Z,4.40
2017-10-25T17:33:36.942Z,5.80
2017-10-25T17:36:06.965Z,4.93
2017-10-25T17:38:36.243Z,6.60
2017-10-25T17:41:05.739Z,5.30
2017-10-25T17:43:35.108Z,5.55
2017-10-25T17:46:04.394Z,6.28
2017-10-25T17:48:33.667Z,6.87
2017-10-25T17:51:02.915Z,6.60
2017-10-25T17:53:32.169Z,6.72
2017-10-25T17:56:01.424Z,7.10
2017-10-25T17:58:30.690Z,6.37
2017-10-25T18:01:00.711Z,6.18
2017-10-25T18:03:30.780Z,7.30
2017-10-25T18:06:00.024Z,7.15
2017-10-25T18:08:30.068Z,6.85
2017-10-25T18:10:59.346Z,7.30
2017-10-25T18:13:29.360Z,8.00
2017-10-25T18:15:59.384Z,7.57
2017-10-25T18:18:29.407Z,8.32
2017-10-25T18:20:59.435Z,6.60
2017-10-25T18:23:28.678Z,7.82
2017-10-25T18:25:59.598Z,7.62
2017-10-25T18:28:28.840Z,8.23
2017-10-25T18:30:58.099Z,8.00
2017-10-25T18:33:27.503Z,8.20
2017-10-25T18:35:57.505Z,7.93
2017-10-25T18:38:26.794Z,6.87
2017-10-25T18:40:56.042Z,7.85
2017-10-25T18:43:25.297Z,7.20
2017-10-25T18:45:54.555Z,7.55
2017-10-25T18:48:23.793Z,7.60
2017-10-25T18:50:53.052Z,7.90
2017-10-25T18:53:22.314Z,7.70
2017-10-25T18:55:51.564Z,8.23
2017-10-25T18:58:20.855Z,8.63
2017-10-25T19:00:51.165Z,7.80
2017-10-25T19:03:20.706Z,9.23
2017-10-25T19:05:50.779Z,8.13
2017-10-25T19:08:20.016Z,9.50
2017-10-25T19:10:49.288Z,8.57
2017-10-25T19:13:18.578Z,7.15
2017-10-25T19:15:47.815Z,7.40
2017-10-25T19:18:17.088Z,8.07
2017-10-25T19:20:46.368Z,7.35
2017-10-25T19:23:15.604Z,7.68
2017-10-25T19:25:44.855Z,7.80
2017-10-25T19:28:14.144Z,8.38
2017-10-25T19:30:43.386Z,8.60
2017-10-25T19:33:12.647Z,8.73
2017-10-25T19:35:41.903Z,9.32
2017-10-25T19:38:11.171Z,8.57
2017-10-25T19:40:40.448Z,9.20
2017-10-25T19:43:10.471Z,8.90
2017-10-25T19:45:39.743Z,10.35
2017-10-25T19:48:09.811Z,10.73
2017-10-25T19:50:39.080Z,9.05
2017-10-25T19:53:08.332Z,10.10
2017-10-25T19:55:37.611Z,11.40
2017-10-25T19:58:06.887Z,10.60
2017-10-25T20:00:36.921Z,15.18
2017-10-25T20:03:06.176Z,14.98
2017-10-25T20:05:36.227Z,14.98
2017-10-25T20:08:05.524Z,15.52
2017-10-25T20:10:34.777Z,16.30
2017-10-25T20:13:04.037Z,12.50
2017-10-25T20:15:33.363Z,11.23
2017-10-25T20:18:02.635Z,12.45
2017-10-25T20:20:31.876Z,13.88
2017-10-25T20:23:01.184Z,10.63
2017-10-25T20:25:30.444Z,11.25
2017-10-25T20:27:59.702Z,11.70
2017-10-25T20:30:28.967Z,11.63
2017-10-25T20:32:58.220Z,12.40
2017-10-25T20:35:27.547Z,12.35
2017-10-25T20:37:56.800Z,11.23
2017-10-25T20:40:26.087Z,10.40
2017-10-25T20:42:55.375Z,10.93
2017-10-25T20:45:24.635Z,11.12
2017-10-25T20:47:53.879Z,11.65
2017-10-25T20:50:23.149Z,13.15
2017-10-25T20:52:52.411Z,14.30
2017-10-25T20:55:22.467Z,13.43
2017-10-25T20:57:51.731Z,12.85
2017-10-25T21:00:21.770Z,12.13
2017-10-25T21:02:51.032Z,11.93
2017-10-25T21:05:20.282Z,11.32
2017-10-25T21:07:49.564Z,11.10
2017-10-25T21:10:19.571Z,11.95
2017-10-25T21:12:48.873Z,11.77
2017-10-25T21:15:18.889Z,12.48
2017-10-25T21:17:48.952Z,13.38
2017-10-25T21:20:18.208Z,11.85
2017-10-25T21:22:48.276Z,11.07
2017-10-25T21:25:17.561Z,12.95
2017-10-25T21:27:46.815Z,12.02
2017-10-25T21:30:16.879Z,11.80
2017-10-25T21:32:46.128Z,11.35
2017-10-25T21:35:15.419Z,11.45
2017-10-25T21:37:44.719Z,11.40
2017-10-25T21:40:13.963Z,10.02
2017-10-25T21:42:43.219Z,10.05
2017-10-25T21:45:12.497Z,9.82
2017-10-25T21:47:41.754Z,9.85
2017-10-25T21:50:11.771Z,9.00
2017-10-25T21:52:41.057Z,8.90
2017-10-25T21:55:11.125Z,9.65
2017-10-25T21:57:40.375Z,9.10
2017-10-25T22:00:10.421Z,8.60
2017-10-25T22:02:39.668Z,9.15
2017-10-25T22:05:08.933Z,12.93
2017-10-25T22:07:38.215Z,10.80
2017-10-25T22:10:07.463Z,9.48
2017-10-25T22:12:36.712Z,9.10
2017-10-25T22:15:05.979Z,9.95
2017-10-25T22:17:35.219Z,10.30
2017-10-25T22:20:04.528Z,11.12
2017-10-25T22:22:33.780Z,10.15
2017-10-25T22:25:03.039Z,10.32
2017-10-25T22:27:32.311Z,9.57
2017-10-25T22:30:01.560Z,11.32
2017-10-25T22:32:30.803Z,10.02
2017-10-25T22:35:00.879Z,10.00
2017-10-25T22:37:30.127Z,9.70
2017-10-25T22:40:00.216Z,9.50
2017-10-25T22:42:29.535Z,9.07
2017-10-25T22:44:58.763Z,9.02
2017-10-25T22:47:28.057Z,10.48
2017-10-25T22:49:57.327Z,9.73
2017-10-25T22:52:26.587Z,9.57
2017-10-25T22:54:55.848Z,9.38
2017-10-25T22:57:25.847Z,8.55
2017-10-25T22:59:56.584Z,8.52
2017-10-25T23:02:26.615Z,8.15
2017-10-25T23:04:55.855Z,9.38
2017-10-25T23:07:25.100Z,8.80
2017-10-25T23:09:55.160Z,8.13
2017-10-25T23:12:24.413Z,8.88
2017-10-25T23:14:53.659Z,9.57
2017-10-25T23:17:22.948Z,8.85
2017-10-25T23:19:52.200Z,9.35
2017-10-25T23:22:21.457Z,10.57
2017-10-25T23:24:50.719Z,9.98
2017-10-25T23:27:20.731Z,10.38
2017-10-25T23:29:50.025Z,9.50
2017-10-25T23:32:19.263Z,9.18
2017-10-25T23:34:48.507Z,10.52
2017-10-25T23:37:17.796Z,9.20
2017-10-25T23:39:47.040Z,10.48
2017-10-25T23:42:17.135Z,9.77
2017-10-25T23:44:46.351Z,8.85
2017-10-25T23:47:15.600Z,9.48
2017-10-25T23:49:44.879Z,8.70
2017-10-25T23:52:14.118Z,8.43
2017-10-25T23:54:43.407Z,9.68
2017-10-25T23:57:12.708Z,9.20
2017-10-25T23:59:41.943Z,9.77
